Time;durP1;ratioP1;P1;durP2;ratioP2;P2;SDS_P1;SDS_P2;PMS_P1;PMS_P2;Temp;Humidity;BMP_temperature;BMP_pressure;BME280_temperature;BME280_humidity;BME280_pressure;Samples;Min_cycle;Max_cycle;Signal;HPM_P1;HPM_P2
2021/11/07 05:50:15;;;;;;;17.45;12.55;;;;;;;4.95;79.62;100449.56;1086755;54;20034;-79
2021/11/07 05:51:19;;;;;;;17.80;13.27;;;;;;;4.92;79.42;100449.75;1087584;54;20031;-78
2021/11/07 05:52:24;;;;;;;18.52;13.13;;;;;;;4.97;79.25;100445.03;1087209;54;20033;-78
2021/11/07 05:53:25;;;;;;;18.23;12.50;;;;;;;4.93;79.69;100440.88;1087756;54;20034;-80
2021/11/07 05:54:30;;;;;;;16.58;12.05;;;;;;;5.02;79.67;100429.69;1087845;54;20035;-79
2021/11/07 05:55:31;;;;;;;16.92;12.35;;;;;;;4.99;79.53;100425.44;1087863;54;20736;-79
2021/11/07 05:56:36;;;;;;;17.50;12.70;;;;;;;4.97;79.70;100422.03;1087830;54;20034;-79
2021/11/07 05:57:38;;;;;;;20.83;13.02;;;;;;;4.94;79.82;100424.91;1087775;54;20073;-78
2021/11/07 05:58:42;;;;;;;20.77;12.80;;;;;;;4.98;79.78;100415.78;1090893;39;20666;-79
2021/11/07 05:59:45;;;;;;;16.95;11.95;;;;;;;5.02;79.80;100421.72;1087848;54;20030;-79
2021/11/07 06:00:52;;;;;;;18.02;12.98;;;;;;;5.07;79.39;100418.78;1088306;39;20609;-79
2021/11/07 06:01:54;;;;;;;18.48;12.00;;;;;;;5.14;79.21;100428.88;1087823;54;20035;-79
2021/11/07 06:03:00;;;;;;;16.80;11.35;;;;;;;5.17;78.99;100422.53;1087868;54;20042;-79
2021/11/07 06:04:02;;;;;;;14.82;11.02;;;;;;;5.09;78.83;100428.34;1087839;54;20059;-80
2021/11/07 06:05:08;;;;;;;16.08;11.07;;;;;;;5.11;79.04;100420.28;1087931;54;20030;-78
2021/11/07 06:06:09;;;;;;;18.38;11.13;;;;;;;5.03;78.70;100430.53;1087838;54;20056;-79
2021/11/07 06:07:16;;;;;;;16.17;11.73;;;;;;;4.92;79.02;100417.97;1087754;54;20034;-80
2021/11/07 06:08:18;;;;;;;16.05;11.55;;;;;;;4.88;79.05;100414.66;1087766;54;20039;-79
2021/11/07 06:09:23;;;;;;;15.63;12.05;;;;;;;4.83;78.94;100417.63;1088239;54;20034;-78
2021/11/07 06:10:24;;;;;;;16.10;11.50;;;;;;;4.93;78.70;100415.25;1090898;46;20030;-77
2021/11/07 06:11:36;;;;;;;18.15;12.07;;;;;;;4.81;78.45;100408.94;1090237;46;20083;-78
2021/11/07 06:12:52;;;;;;;16.83;12.68;;;;;;;4.77;78.67;100422.47;1088193;54;20086;-80
2021/11/07 06:14:01;;;;;;;18.05;12.82;;;;;;;4.77;78.31;100415.38;1087925;54;20034;-79
2021/11/07 06:15:20;;;;;;;14.35;11.18;;;;;;;4.79;78.22;100409.97;1088918;46;20015;-79
2021/11/07 06:16:38;;;;;;;15.40;11.20;;;;;;;4.68;77.76;100411.50;1088222;54;20015;-78
2021/11/07 06:17:48;;;;;;;17.42;12.00;;;;;;;4.46;78.49;100404.06;1089798;46;20062;-79
2021/11/07 06:18:51;;;;;;;;;;;;;;;4.10;78.44;100402.78;1088267;54;20031;-80
2021/11/07 06:19:59;;;;;;;15.90;11.88;;;;;;;4.19;78.77;100402.22;1087992;54;19983;-78
2021/11/07 06:21:08;;;;;;;16.40;12.07;;;;;;;4.13;78.74;100404.38;1088418;54;20094;-78
2021/11/07 06:22:20;;;;;;;17.83;12.57;;;;;;;3.89;78.86;100411.06;1088250;54;20023;-79
2021/11/07 06:23:29;;;;;;;17.83;11.75;;;;;;;4.00;78.87;100414.88;1088161;54;20015;-79
2021/11/07 06:24:35;;;;;;;16.17;11.95;;;;;;;3.99;78.20;100416.69;1088089;54;20038;-79
2021/11/07 06:25:42;;;;;;;17.73;12.75;;;;;;;3.91;78.55;100424.22;1093718;39;20901;-80
2021/11/07 06:26:45;;;;;;;18.95;11.82;;;;;;;3.96;78.40;100418.66;1088185;54;20773;-78
2021/11/07 06:27:50;;;;;;;17.67;13.20;;;;;;;3.81;78.47;100429.22;1088114;54;20038;-78
2021/11/07 06:28:53;;;;;;;17.95;12.68;;;;;;;3.92;78.48;100431.19;1088205;54;20034;-79
2021/11/07 06:29:57;;;;;;;17.63;12.68;;;;;;;3.95;78.25;100425.72;1090061;39;20665;-80
2021/11/07 06:31:03;;;;;;;16.15;11.18;;;;;;;3.97;78.02;100430.94;1088182;46;20769;-79
2021/11/07 06:32:08;;;;;;;16.00;11.90;;;;;;;3.87;77.80;100431.47;1088151;54;20061;-77
2021/11/07 06:33:13;;;;;;;15.85;11.55;;;;;;;3.93;77.87;100435.53;1088855;46;20054;-80
2021/11/07 06:34:15;;;;;;;17.40;12.73;;;;;;;3.97;77.94;100436.25;1088091;54;20038;-78
2021/11/07 06:35:19;;;;;;;15.88;11.70;;;;;;;4.01;77.65;100438.59;1088071;54;20026;-79
2021/11/07 06:36:20;;;;;;;17.83;12.48;;;;;;;3.79;78.09;100444.31;1087994;54;20030;-78
2021/11/07 06:37:27;;;;;;;16.90;11.73;;;;;;;3.86;78.27;100445.66;1088028;54;20750;-78
2021/11/07 06:38:29;;;;;;;16.30;11.90;;;;;;;3.85;78.03;100449.25;1087977;54;20038;-79
2021/11/07 06:39:34;;;;;;;16.98;11.93;;;;;;;3.83;78.07;100439.69;1087946;54;20769;-77
2021/11/07 06:40:39;;;;;;;14.73;11.10;;;;;;;3.78;78.05;100437.31;1088047;54;20031;-76
2021/11/07 06:41:43;;;;;;;16.75;11.65;;;;;;;3.87;77.83;100435.91;1087932;54;20033;-77
2021/11/07 06:42:48;;;;;;;15.98;11.90;;;;;;;3.74;77.84;100435.81;1088080;54;20117;-76
2021/11/07 06:43:51;;;;;;;18.05;11.95;;;;;;;3.75;77.86;100437.50;1088047;54;20034;-76
2021/11/07 06:44:56;;;;;;;15.80;11.50;;;;;;;3.70;78.05;100434.28;1088125;54;20071;-78
2021/11/07 06:45:59;;;;;;;16.92;12.23;;;;;;;3.65;78.23;100441.66;1088431;47;20058;-77
2021/11/07 06:47:03;;;;;;;14.60;11.10;;;;;;;3.74;77.97;100439.28;1087986;54;20027;-77
2021/11/07 06:48:06;;;;;;;16.25;11.93;;;;;;;3.70;78.17;100436.91;1088054;54;20038;-76
2021/11/07 06:49:13;;;;;;;15.02;10.75;;;;;;;3.81;77.63;100431.00;1087985;54;20053;-75
2021/11/07 06:50:17;;;;;;;13.88;10.38;;;;;;;3.81;77.39;100423.91;1088102;54;20046;-78
2021/11/07 06:51:21;;;;;;;16.65;11.05;;;;;;;3.84;77.26;100426.38;1088862;39;20080;-76
2021/11/07 06:52:28;;;;;;;15.07;10.18;;;;;;;3.90;77.10;100431.28;1087886;54;20058;-78
2021/11/07 06:53:35;;;;;;;14.05;10.63;;;;;;;3.75;77.40;100421.66;1088496;46;20030;-76
2021/11/07 06:54:37;;;;;;;15.10;10.70;;;;;;;3.84;77.08;100426.38;1088100;54;20034;-77
2021/11/07 06:55:42;;;;;;;18.17;10.93;;;;;;;3.95;77.05;100422.25;1088129;54;20041;-76
2021/11/07 06:56:44;;;;;;;13.35;9.95;;;;;;;4.04;76.66;100413.75;1088070;54;20734;-77
2021/11/07 06:57:49;;;;;;;15.52;10.80;;;;;;;3.96;76.71;100416.00;1088570;46;20065;-76
2021/11/07 06:58:51;;;;;;;13.52;10.07;;;;;;;3.99;76.70;100405.22;1087969;54;20037;-76
2021/11/07 06:59:55;;;;;;;12.95;9.35;;;;;;;4.10;76.46;100405.44;1092006;39;20620;-77
2021/11/07 07:00:57;;;;;;;13.02;9.68;;;;;;;4.16;76.05;100394.44;1088017;54;20110;-78
2021/11/07 07:02:02;;;;;;;11.18;8.45;;;;;;;4.24;75.99;100390.50;1087972;54;20035;-76
2021/11/07 07:03:06;;;;;;;10.80;7.88;;;;;;;4.33;75.92;100397.88;1087924;54;20038;-76
2021/11/07 07:04:09;;;;;;;11.95;8.18;;;;;;;4.30;75.79;100398.03;1089533;46;20038;-77
2021/11/07 07:05:16;;;;;;;13.02;9.45;;;;;;;4.15;76.29;100406.00;1087985;54;20034;-77
2021/11/07 07:06:18;;;;;;;11.63;8.70;;;;;;;4.28;76.10;100402.56;1089635;46;20046;-77
2021/11/07 07:07:23;;;;;;;14.90;9.63;;;;;;;4.25;75.86;100402.78;1087994;54;20031;-76
2021/11/07 07:08:33;;;;;;;13.25;9.43;;;;;;;4.27;75.47;100400.88;1087857;54;20034;-77
2021/11/07 07:09:45;;;;;;;12.57;8.68;;;;;;;4.28;75.71;100386.69;1088040;54;20014;-78
2021/11/07 07:10:53;;;;;;;13.93;10.05;;;;;;;4.07;75.98;100395.03;1089214;46;20031;-76
2021/11/07 07:12:05;;;;;;;14.25;9.93;;;;;;;4.08;76.09;100398.53;1087789;54;20034;-77
2021/11/07 07:13:10;;;;;;;16.48;9.98;;;;;;;4.25;75.92;100397.50;1088030;54;20053;-77
2021/11/07 07:14:19;;;;;;;16.60;10.68;;;;;;;4.19;75.96;100386.34;1088781;47;20038;-77
2021/11/07 07:15:22;;;;;;;15.20;10.23;;;;;;;4.25;75.69;100387.75;1087976;54;20817;-77
2021/11/07 07:16:38;;;;;;;16.15;11.38;;;;;;;4.23;76.14;100394.94;1087837;54;20094;-78
2021/11/07 07:17:50;;;;;;;14.82;10.68;;;;;;;4.36;75.72;100395.88;1088104;54;20035;-79
2021/11/07 07:19:01;;;;;;;17.25;11.43;;;;;;;4.48;75.44;100398.69;1088224;54;20056;-79
2021/11/07 07:20:21;;;;;;;12.48;9.20;;;;;;;4.55;75.33;100383.25;1087967;54;20034;-79
2021/11/07 07:21:33;;;;;;;14.77;10.18;;;;;;;4.48;75.45;100385.47;1087946;54;20027;-80
2021/11/07 07:24:34;;;;;;;14.38;9.57;;;;;;;4.50;75.03;100365.88;1087594;54;20042;-78
2021/11/07 07:27:03;;;;;;;14.93;10.40;;;;;;;4.50;75.22;100386.19;1087967;54;20057;-80
2021/11/07 07:28:25;;;;;;;14.63;10.93;;;;;;;4.39;75.48;100394.81;1087960;54;20030;-80
2021/11/07 07:29:35;;;;;;;14.18;10.60;;;;;;;4.25;76.12;100398.34;1087378;54;21174;-79
2021/11/07 07:30:48;;;;;;;14.50;10.93;;;;;;;4.33;75.94;100404.00;1087450;54;20710;-78
2021/11/07 07:31:56;;;;;;;15.00;10.95;;;;;;;4.36;76.24;100402.94;1087688;54;20034;-79
2021/11/07 07:33:14;;;;;;;15.70;9.70;;;;;;;4.45;75.74;100405.00;1087927;54;20094;-78
2021/11/07 07:34:19;;;;;;;13.55;10.63;;;;;;;4.48;75.94;100404.84;1087877;54;20031;-79
2021/11/07 07:35:26;;;;;;;13.95;10.30;;;;;;;4.44;75.95;100395.38;1087984;54;20034;-78
2021/11/07 07:36:28;;;;;;;13.70;9.98;;;;;;;4.53;75.77;100394.78;1088125;54;20055;-79
2021/11/07 07:37:35;;;;;;;14.35;9.63;;;;;;;4.66;75.56;100381.63;1088159;54;20030;-78
2021/11/07 07:38:36;;;;;;;12.00;8.80;;;;;;;4.72;75.54;100380.41;1087993;54;20525;-77
2021/11/07 07:39:43;;;;;;;13.93;10.30;;;;;;;4.84;74.99;100376.09;1088003;54;20035;-80
2021/11/07 07:40:48;;;;;;;12.95;9.38;;;;;;;4.92;75.03;100386.19;1087922;54;20049;-79
2021/11/07 07:41:49;;;;;;;13.60;9.32;;;;;;;4.69;74.80;100391.19;1087988;54;20061;-77
2021/11/07 07:42:54;;;;;;;14.88;10.27;;;;;;;4.77;74.97;100383.59;1087971;54;20042;-79
2021/11/07 07:44:02;;;;;;;14.00;9.73;;;;;;;4.61;75.53;100382.88;1088031;54;20037;-78
2021/11/07 07:45:08;;;;;;;14.77;10.10;;;;;;;4.83;75.26;100383.19;1088082;54;20061;-79
2021/11/07 07:46:12;;;;;;;15.13;10.30;;;;;;;4.84;74.87;100381.41;1088300;54;20038;-78
2021/11/07 07:47:17;;;;;;;12.77;9.45;;;;;;;4.96;74.51;100371.78;1088372;54;20104;-79
2021/11/07 07:48:20;;;;;;;12.07;8.75;;;;;;;5.04;74.44;100374.78;1088180;54;20034;-80
2021/11/07 07:49:25;;;;;;;12.60;9.20;;;;;;;5.05;74.31;100380.94;1088377;54;20042;-80
2021/11/07 07:50:31;;;;;;;11.95;8.77;;;;;;;5.06;74.42;100366.72;1088367;54;20054;-79
2021/11/07 07:51:35;;;;;;;11.65;8.35;;;;;;;5.10;74.25;100360.28;1090513;39;20719;-77
2021/11/07 07:52:41;;;;;;;12.35;9.00;;;;;;;5.09;74.24;100362.09;1088699;39;20623;-79
2021/11/07 07:53:45;;;;;;;11.57;7.88;;;;;;;5.14;74.21;100359.97;1088422;39;20661;-79
2021/11/07 07:54:52;;;;;;;11.48;8.48;;;;;;;5.13;74.16;100358.28;1088353;54;20014;-78
2021/11/07 07:55:54;;;;;;;14.18;9.25;;;;;;;5.26;74.06;100363.59;1088350;54;20041;-79
2021/11/07 07:56:58;;;;;;;13.45;8.65;;;;;;;5.15;73.98;100369.63;1088431;54;20041;-78
2021/11/07 07:58:03;;;;;;;10.98;8.45;;;;;;;5.32;73.74;100383.53;1088357;54;20034;-78
2021/11/07 07:59:06;;;;;;;11.90;7.68;;;;;;;5.43;73.61;100381.03;1088422;54;20019;-80
2021/11/07 08:00:15;;;;;;;12.73;8.45;;;;;;;5.26;73.49;100381.31;1088347;54;20733;-78
2021/11/07 08:01:19;;;;;;;11.40;8.50;;;;;;;5.24;73.79;100373.44;1094903;39;20606;-78
2021/11/07 08:02:20;;;;;;;11.15;7.63;;;;;;;5.13;74.32;100394.53;1088464;54;20057;-80
2021/11/07 08:03:25;;;;;;;10.82;7.88;;;;;;;5.25;73.95;100377.81;1088318;54;20038;-80
2021/11/07 08:04:26;;;;;;;10.43;7.65;;;;;;;5.18;73.86;100378.34;1091483;46;20034;-77
2021/11/07 08:05:30;;;;;;;13.43;9.20;;;;;;;5.08;74.35;100373.66;1088282;54;20026;-78
2021/11/07 08:06:32;;;;;;;11.32;8.50;;;;;;;5.21;73.76;100367.50;1088305;54;20340;-78
2021/11/07 08:07:36;;;;;;;12.00;8.80;;;;;;;5.11;74.28;100364.63;1088345;54;20019;-79
2021/11/07 08:08:38;;;;;;;12.27;8.60;;;;;;;5.17;74.17;100364.22;1088245;54;20026;-79
2021/11/07 08:09:42;;;;;;;11.45;8.98;;;;;;;5.20;74.01;100360.50;1088277;54;20027;-77
2021/11/07 08:10:46;;;;;;;12.35;8.40;;;;;;;5.42;73.68;100354.63;1088336;54;20738;-79
2021/11/07 08:11:50;;;;;;;13.80;7.82;;;;;;;5.55;73.11;100355.47;1088211;54;20040;-79
2021/11/07 08:12:52;;;;;;;11.07;8.35;;;;;;;5.63;73.07;100354.97;1088363;54;20038;-77
2021/11/07 08:13:57;;;;;;;10.38;7.72;;;;;;;5.71;72.67;100360.59;1088201;54;20018;-78
2021/11/07 08:15:00;;;;;;;10.80;7.80;;;;;;;5.77;72.62;100368.09;1088271;54;20038;-78
2021/11/07 08:16:04;;;;;;;10.00;7.13;;;;;;;5.84;72.62;100370.34;1088304;54;20015;-79
2021/11/07 08:17:06;;;;;;;10.88;7.63;;;;;;;5.92;72.37;100360.06;1088334;54;20703;-80
2021/11/07 08:18:12;;;;;;;9.57;7.13;;;;;;;5.80;72.22;100359.13;1088312;54;20027;-79
2021/11/07 08:19:15;;;;;;;11.10;8.02;;;;;;;5.86;72.21;100353.38;1088229;54;20034;-79
2021/11/07 08:20:20;;;;;;;9.98;6.95;;;;;;;5.91;71.90;100343.28;1089056;31;20658;-79
2021/11/07 08:21:25;;;;;;;10.05;6.97;;;;;;;5.96;72.13;100334.16;1088395;54;20019;-80
2021/11/07 08:22:29;;;;;;;9.77;6.55;;;;;;;5.96;71.95;100340.28;1088556;54;20026;-78
2021/11/07 08:23:32;;;;;;;11.05;7.35;;;;;;;5.85;72.04;100348.19;1088300;54;20054;-80
2021/11/07 08:24:37;;;;;;;9.98;7.03;;;;;;;5.89;71.84;100355.81;1088294;54;20054;-78
2021/11/07 08:25:38;;;;;;;8.65;6.70;;;;;;;5.90;71.93;100351.34;1088328;54;20021;-80
2021/11/07 08:26:47;;;;;;;9.82;7.25;;;;;;;5.90;71.76;100349.53;1088389;54;20025;-78
2021/11/07 08:27:57;;;;;;;10.57;7.68;;;;;;;5.88;71.88;100354.13;1088282;54;20019;-79
2021/11/07 08:29:02;;;;;;;10.82;6.78;;;;;;;5.96;71.84;100353.56;1088291;54;20802;-79
2021/11/07 08:30:05;;;;;;;9.65;7.68;;;;;;;6.02;71.73;100361.16;1088256;54;20068;-79
2021/11/07 08:31:17;;;;;;;9.43;6.93;;;;;;;6.01;71.61;100351.47;1088341;54;20145;-79
2021/11/07 08:32:19;;;;;;;10.65;7.45;;;;;;;6.00;71.48;100346.28;1088346;54;20026;-79
2021/11/07 08:33:24;;;;;;;9.40;7.05;;;;;;;6.06;71.36;100346.69;1088266;54;20050;-80
2021/11/07 08:34:28;;;;;;;10.10;7.25;;;;;;;6.07;71.52;100359.00;1088324;54;20034;-78
2021/11/07 08:35:33;;;;;;;10.95;7.43;;;;;;;6.04;71.38;100353.94;1088295;54;20034;-79
2021/11/07 08:36:39;;;;;;;9.13;6.82;;;;;;;6.12;71.19;100355.19;1088821;46;20742;-79
2021/11/07 08:37:47;;;;;;;9.10;7.05;;;;;;;6.13;71.44;100354.22;1089277;39;20561;-79
2021/11/07 08:38:55;;;;;;;10.05;7.45;;;;;;;6.01;71.35;100354.13;1088343;54;20014;-79
2021/11/07 08:39:59;;;;;;;11.23;7.88;;;;;;;5.99;71.60;100348.06;1088327;54;20034;-79
2021/11/07 08:41:04;;;;;;;10.70;7.47;;;;;;;6.09;71.53;100343.81;1088268;54;20046;-78
2021/11/07 08:42:14;;;;;;;11.38;8.05;;;;;;;6.05;71.13;100349.47;1088270;54;20042;-80
2021/11/07 09:01:21;;;;;;;11.07;7.15;;;;;;;6.38;70.65;100311.69;1088273;54;20034;-80
2021/11/07 09:02:34;;;;;;;11.48;7.80;;;;;;;6.49;70.49;100307.41;1095513;39;20731;-78
2021/11/07 09:03:47;;;;;;;15.77;7.50;;;;;;;6.48;70.52;100303.03;1088186;54;20145;-79
2021/11/07 09:04:57;;;;;;;9.20;6.45;;;;;;;6.60;70.27;100296.84;1089758;46;20030;-79
2021/11/07 09:06:14;;;;;;;9.57;6.97;;;;;;;6.65;69.97;100292.03;1088271;46;20042;-78
2021/11/07 09:07:20;;;;;;;9.90;6.45;;;;;;;6.72;70.26;100290.59;1088131;54;20283;-79
2021/11/07 09:08:26;;;;;;;10.13;6.60;;;;;;;6.70;70.17;100291.69;1088227;54;20034;-79
2021/11/07 09:09:33;;;;;;;9.80;6.88;;;;;;;6.82;69.90;100292.56;1088315;54;20035;-80
2021/11/07 09:10:38;;;;;;;9.73;6.72;;;;;;;6.92;69.80;100301.56;1088326;54;20030;-78
2021/11/07 09:11:51;;;;;;;10.65;7.40;;;;;;;6.86;69.78;100291.41;1088333;54;20923;-78
2021/11/07 09:12:59;;;;;;;9.00;6.13;;;;;;;6.95;69.61;100301.34;1088260;54;20042;-79
2021/11/07 09:14:00;;;;;;;9.40;7.05;;;;;;;6.74;69.52;100297.63;1088152;54;20030;-80
2021/11/07 09:15:07;;;;;;;10.75;7.50;;;;;;;6.82;69.46;100308.53;1088212;54;20014;-79
2021/11/07 09:16:10;;;;;;;10.82;7.38;;;;;;;6.73;69.26;100307.41;1088278;54;20043;-78
2021/11/07 09:17:17;;;;;;;11.90;8.52;;;;;;;6.44;69.88;100313.06;1088325;54;20078;-80
2021/11/07 09:18:20;;;;;;;12.80;9.15;;;;;;;6.42;70.29;100308.81;1088333;54;20038;-80
2021/11/07 09:19:26;;;;;;;14.15;9.88;;;;;;;6.37;70.40;100304.66;1088218;54;20061;-78
2021/11/07 09:20:36;;;;;;;11.35;8.52;;;;;;;6.56;70.38;100306.81;1088290;54;20026;-79
2021/11/07 09:21:44;;;;;;;13.20;8.00;;;;;;;6.64;69.68;100292.16;1088317;54;20019;-79
2021/11/07 09:22:48;;;;;;;10.68;7.72;;;;;;;6.69;70.11;100300.63;1088292;54;20019;-77
2021/11/07 09:23:55;;;;;;;11.10;8.18;;;;;;;6.48;70.03;100297.72;1091241;39;20637;-78
2021/11/07 09:25:02;;;;;;;11.02;8.45;;;;;;;6.49;70.18;100294.97;1088248;54;20712;-78
2021/11/07 09:27:28;;;;;;;11.10;7.20;;;;;;;6.45;70.39;100297.94;1088081;54;20508;-78
2021/11/07 09:28:35;;;;;;;11.65;8.43;;;;;;;6.39;70.54;100292.13;1088908;46;20035;-80
2021/11/07 09:29:50;;;;;;;10.82;7.78;;;;;;;6.50;70.29;100290.50;1092440;46;20042;-79
2021/11/07 09:31:09;;;;;;;11.15;7.78;;;;;;;6.51;70.20;100286.91;1088400;46;20027;-79
2021/11/07 09:32:26;;;;;;;11.63;8.10;;;;;;;6.50;70.16;100285.19;1088241;54;20026;-78
2021/11/07 09:33:35;;;;;;;12.02;8.27;;;;;;;6.48;70.42;100287.94;1088234;54;20112;-79
2021/11/07 09:34:44;;;;;;;10.82;7.45;;;;;;;6.52;70.42;100285.91;1088256;54;20039;-78
2021/11/07 09:36:11;;;;;;;9.25;6.68;;;;;;;6.68;70.13;100293.59;1088222;54;20035;-78
2021/11/07 09:37:24;;;;;;;11.77;7.40;;;;;;;6.71;69.80;100280.94;1088243;54;20045;-77
2021/11/07 09:38:32;;;;;;;9.85;7.50;;;;;;;6.88;69.39;100278.84;1088296;54;20042;-79
2021/11/07 09:39:39;;;;;;;11.68;7.93;;;;;;;6.80;69.38;100290.03;1088253;54;20030;-80
2021/11/07 09:40:48;;;;;;;10.32;7.38;;;;;;;6.79;69.57;100287.50;1093224;46;20030;-78
2021/11/07 09:42:12;;;;;;;10.00;7.63;;;;;;;6.77;69.88;100294.75;1088173;54;20037;-77
2021/11/07 09:43:24;;;;;;;10.38;7.20;;;;;;;6.72;69.67;100295.91;1088133;54;20038;-78
2021/11/07 09:44:38;;;;;;;10.50;7.47;;;;;;;6.72;69.67;100306.53;1088076;54;20034;-79
2021/11/07 09:45:53;;;;;;;11.07;7.80;;;;;;;6.67;69.67;100303.41;1088009;54;20042;-79
2021/11/07 09:46:57;;;;;;;9.60;7.07;;;;;;;6.86;69.47;100292.22;1094784;39;20614;-77
2021/11/07 09:48:06;;;;;;;10.25;7.95;;;;;;;6.92;69.39;100298.06;1087988;54;20070;-79
2021/11/07 09:49:15;;;;;;;10.50;7.57;;;;;;;6.99;69.05;100300.13;1087912;54;20034;-78
2021/11/07 09:50:19;;;;;;;9.32;6.78;;;;;;;6.94;69.32;100296.16;1087938;54;20015;-78
2021/11/07 09:51:23;;;;;;;9.98;7.00;;;;;;;7.03;69.21;100290.97;1087888;54;20019;-78
2021/11/07 09:52:34;;;;;;;9.93;6.85;;;;;;;7.17;68.78;100295.25;1087779;54;20037;-77
2021/11/07 09:53:38;;;;;;;11.45;7.65;;;;;;;7.02;68.81;100296.41;1087735;54;20113;-78
2021/11/07 09:54:43;;;;;;;10.43;7.32;;;;;;;7.16;68.79;100292.72;1087955;54;20045;-78
2021/11/07 09:55:48;;;;;;;10.07;7.78;;;;;;;6.98;68.66;100285.16;1094041;39;20775;-78
2021/11/07 09:56:55;;;;;;;11.93;8.50;;;;;;;6.81;69.32;100290.88;1091983;39;20614;-79
2021/11/07 09:57:59;;;;;;;10.40;7.25;;;;;;;6.68;69.30;100291.81;1087838;54;20029;-79
2021/11/07 09:59:03;;;;;;;10.48;7.30;;;;;;;6.85;69.18;100292.34;1087932;54;20015;-79
2021/11/07 10:00:11;;;;;;;10.00;7.47;;;;;;;6.89;68.66;100285.84;1087916;54;20014;-77
2021/11/07 10:01:15;;;;;;;9.80;7.13;;;;;;;7.00;68.71;100280.56;1087804;54;20046;-78
2021/11/07 10:02:19;;;;;;;10.18;7.28;;;;;;;7.07;68.41;100272.13;1087976;54;20023;-79
2021/11/07 10:03:26;;;;;;;11.85;7.72;;;;;;;7.07;68.31;100272.97;1087729;54;20034;-80
2021/11/07 10:04:31;;;;;;;10.65;7.10;;;;;;;7.13;68.02;100266.34;1088001;54;20034;-79
2021/11/07 10:05:39;;;;;;;9.00;6.25;;;;;;;7.23;67.97;100262.03;1088108;54;20788;-80
2021/11/07 10:06:48;;;;;;;8.88;6.53;;;;;;;7.25;68.07;100254.78;1088024;54;20044;-78
2021/11/07 10:07:56;;;;;;;9.90;6.72;;;;;;;7.26;67.71;100259.13;1088031;54;20040;-78
2021/11/07 10:09:02;;;;;;;10.48;7.20;;;;;;;7.10;68.48;100250.63;1088012;54;20031;-79
2021/11/07 10:10:12;;;;;;;11.00;7.65;;;;;;;7.21;67.69;100247.16;1088253;54;20018;-80
2021/11/07 10:11:16;;;;;;;9.70;6.95;;;;;;;7.12;67.93;100246.03;1088094;54;20711;-79
2021/11/07 10:12:21;;;;;;;10.55;7.13;;;;;;;7.07;68.01;100240.22;1088107;54;20932;-78
2021/11/07 10:13:27;;;;;;;9.73;7.03;;;;;;;7.08;68.07;100244.59;1088200;54;20750;-79
2021/11/07 10:14:40;;;;;;;8.50;6.50;;;;;;;7.29;67.57;100245.56;1088145;54;20667;-79
2021/11/07 10:15:49;;;;;;;8.65;6.43;;;;;;;7.26;67.91;100240.53;1088192;54;20034;-79
2021/11/07 10:16:53;;;;;;;9.93;6.90;;;;;;;7.45;67.64;100241.75;1088202;54;20018;-80
2021/11/07 10:18:03;;;;;;;8.73;5.95;;;;;;;7.62;67.19;100254.56;1088295;54;20031;-80
2021/11/07 10:19:29;;;;;;;8.18;5.88;;;;;;;7.69;66.91;100246.97;1088201;54;20042;-78
2021/11/07 10:20:38;;;;;;;8.95;6.43;;;;;;;7.57;67.02;100254.06;1088272;54;20034;-80
2021/11/07 10:21:45;;;;;;;8.85;6.20;;;;;;;7.65;66.95;100248.97;1088203;54;20102;-79
2021/11/07 10:22:55;;;;;;;9.05;6.55;;;;;;;7.56;66.91;100246.22;1090984;46;20057;-79
2021/11/07 10:24:02;;;;;;;9.73;6.28;;;;;;;7.74;67.09;100246.59;1088169;54;20039;-80
2021/11/07 10:25:15;;;;;;;9.85;6.15;;;;;;;7.87;66.55;100239.31;1088141;54;20049;-79
2021/11/07 10:26:22;;;;;;;7.93;5.57;;;;;;;7.93;66.52;100237.97;1088179;54;20037;-79
2021/11/07 10:27:24;;;;;;;10.45;5.85;;;;;;;8.05;66.39;100231.66;1088153;54;20018;-78
2021/11/07 10:28:34;;;;;;;8.95;5.93;;;;;;;8.15;66.04;100237.09;1088225;54;20030;-78
2021/11/07 10:29:40;;;;;;;8.93;5.78;;;;;;;8.17;65.65;100235.16;1090710;39;20619;-78
2021/11/07 10:30:50;;;;;;;12.20;7.07;;;;;;;7.79;65.89;100225.75;1088214;54;20796;-79
2021/11/07 10:31:59;;;;;;;10.98;7.25;;;;;;;7.73;66.16;100220.94;1088226;54;20086;-78
2021/11/07 10:33:08;;;;;;;10.90;7.10;;;;;;;7.92;66.08;100226.50;1088241;54;20061;-78
2021/11/07 10:34:28;;;;;;;9.70;5.55;;;;;;;8.11;65.51;100227.66;1088230;54;20035;-77
2021/11/07 10:37:17;;;;;;;9.35;6.35;;;;;;;8.15;65.15;100226.44;1088155;54;20048;-80
2021/11/07 10:43:04;;;;;;;8.75;5.70;;;;;;;8.00;65.93;100214.38;1088231;54;20026;-78
2021/11/07 10:44:26;;;;;;;7.35;5.35;;;;;;;8.27;65.31;100204.13;1088121;54;20090;-77
2021/11/07 10:45:45;;;;;;;7.97;5.63;;;;;;;8.36;65.06;100204.34;1088154;54;20022;-80
2021/11/07 10:52:03;;;;;;;7.70;5.18;;;;;;;8.59;65.06;100199.78;1087748;54;20030;-78
2021/11/07 10:52:24;;;;;;;8.27;4.68;;;;;;;8.61;64.82;100194.31;1087899;54;20023;-79
2021/11/07 10:53:28;;;;;;;8.30;5.60;;;;;;;8.48;65.46;100189.19;1088085;54;20018;-79
2021/11/07 10:54:30;;;;;;;7.30;5.07;;;;;;;8.64;64.78;100191.41;1087576;54;20030;-78
2021/11/07 10:55:36;;;;;;;7.45;5.15;;;;;;;8.69;65.09;100198.06;1088103;54;20034;-79
2021/11/07 10:56:40;;;;;;;10.18;5.32;;;;;;;8.55;65.23;100196.53;1088080;54;20057;-79
2021/11/07 10:57:45;;;;;;;6.97;4.97;;;;;;;8.69;65.33;100199.88;1089491;31;20781;-80
2021/11/07 10:58:51;;;;;;;7.43;4.95;;;;;;;8.52;65.84;100196.78;1088068;54;20034;-81
2021/11/07 11:00:09;;;;;;;8.57;5.25;;;;;;;8.37;65.89;100200.72;1088106;54;20034;-78
2021/11/07 11:01:18;;;;;;;7.95;5.57;;;;;;;8.34;66.25;100198.28;1088068;54;20040;-80
2021/11/07 11:02:39;;;;;;;8.73;5.35;;;;;;;8.34;66.71;100192.97;1088034;54;20055;-77
2021/11/07 11:03:45;;;;;;;7.68;4.85;;;;;;;8.51;66.25;100186.28;1088027;54;21136;-78
2021/11/07 11:04:59;;;;;;;7.03;5.03;;;;;;;8.33;66.97;100191.25;1088160;54;20034;-79
2021/11/07 11:06:08;;;;;;;7.60;4.35;;;;;;;8.33;66.87;100185.94;1087902;54;20038;-78
2021/11/07 11:07:12;;;;;;;10.05;4.70;;;;;;;8.43;66.99;100192.19;1089515;39;20963;-79
2021/11/07 11:08:21;;;;;;;9.45;5.47;;;;;;;8.32;67.20;100194.91;1088080;54;20065;-77
2021/11/07 11:09:23;;;;;;;7.00;4.88;;;;;;;8.31;67.54;100193.22;1088050;54;20042;-79
2021/11/07 11:10:34;;;;;;;8.02;4.75;;;;;;;8.25;67.60;100195.41;1088120;54;20030;-78
2021/11/07 11:11:42;;;;;;;9.52;5.18;;;;;;;8.41;67.72;100194.13;1088186;54;20019;-79
2021/11/07 11:13:19;;;;;;;6.88;4.28;;;;;;;8.60;67.08;100190.00;1088021;54;20044;-79
2021/11/07 11:14:27;;;;;;;7.95;4.78;;;;;;;8.58;67.08;100185.63;1087829;54;20034;-81
2021/11/07 11:15:36;;;;;;;6.95;4.40;;;;;;;8.71;67.00;100195.25;1087835;54;20054;-79
2021/11/07 11:16:50;;;;;;;7.43;4.43;;;;;;;8.73;66.82;100187.97;1087798;54;20078;-79
2021/11/07 11:18:18;;;;;;;8.40;4.43;;;;;;;8.67;66.95;100184.00;1088582;47;20046;-78
2021/11/07 11:21:22;;;;;;;6.65;4.20;;;;;;;8.61;67.79;100183.66;1087628;54;20030;-77
2021/11/07 11:23:58;;;;;;;7.00;4.35;;;;;;;8.63;68.00;100171.06;1087671;54;20023;-79
2021/11/07 11:28:30;;;;;;;7.88;4.22;;;;;;;8.81;67.90;100152.69;1087648;54;20023;-77
2021/11/07 11:29:48;;;;;;;6.45;3.80;;;;;;;8.93;67.57;100153.44;1087725;54;20065;-77
2021/11/07 11:31:03;;;;;;;7.28;4.55;;;;;;;9.06;67.51;100159.44;1087709;54;20034;-78
2021/11/07 11:32:09;;;;;;;7.28;4.30;;;;;;;8.95;67.93;100162.16;1087850;54;20045;-78
2021/11/07 11:33:21;;;;;;;5.80;3.40;;;;;;;9.04;67.69;100159.53;1087758;54;20062;-80
2021/11/07 11:34:26;;;;;;;6.68;3.83;;;;;;;9.07;67.93;100144.25;1087751;54;20034;-78
2021/11/07 11:35:34;;;;;;;5.25;2.97;;;;;;;9.03;68.19;100157.00;1087687;54;20711;-78
2021/11/07 11:36:44;;;;;;;6.22;3.00;;;;;;;9.03;68.59;100151.69;1087814;54;20025;-78
2021/11/07 11:37:57;;;;;;;6.18;2.42;;;;;;;9.06;68.89;100148.75;1087835;54;20042;-79
2021/11/07 11:39:08;;;;;;;7.90;2.50;;;;;;;9.08;69.43;100149.44;1087856;54;20034;-79
2021/11/07 11:40:17;;;;;;;;;;;;;;;9.03;70.06;100159.69;1087885;54;20034;-81
2021/11/07 11:41:26;;;;;;;4.47;2.15;;;;;;;9.02;70.13;100155.31;1087598;54;19938;-78
2021/11/07 11:42:33;;;;;;;7.57;2.40;;;;;;;9.08;70.01;100152.13;1087498;54;21545;-79
2021/11/07 11:43:39;;;;;;;4.63;1.90;;;;;;;9.13;69.85;100146.38;1087356;54;20952;-77